Key West Nas, Boca Chica Field, Airport Key West US
ICAO: KNQX
IATA: NQX
Category: Medium
Scheduled Services: No

Elevation: 6 ft
TransAlt. 18000 ft.

Airport Communications:
APP DEP:119.25
ATIS:27.72
CLNC DEL:121.2
GND:121.7
BASE OPS:33.8
PMSV METRO:34.46
TWR:126.1

KNQX Zoom In..

Runways:

(A) RW 03 length 7002 ft width 150 ft
---- / hdg 34

(B) RW 07 length 10001 ft width 200 ft
---- / hdg 75

(C) RW 13 length 7001 ft width 150 ft
---- / hdg 133

(D) RW 21 length 7002 ft width 150 ft
---- / hdg 214

(E) RW 25 length 10001 ft width 200 ft
---- / hdg 255

(F) RW 31 length 7001 ft width 150 ft
---- / hdg 313

Location; KNQX
Day. 23 / Time. 09.53 Zulu
* Altimeter: 29.91
* Temperature: 27° c. 80.6°f.
* Wind from: 290° Speed 06 kn.
Dewpoint: 24° c.
Visibility: 10 Statute Miles.
Clouds: Clear (automated report).

KNQX 230953Z AUTO 29006KT 10SM CLR 27/24 A2991 RMK AO2 SLP127 T02670239 TSNO $


Wind From 290°
Speed 06 kn.

 
 
jpsmedia.com for Web Design worldairports.se 2018   terms of use